Time;durP1;ratioP1;P1;durP2;ratioP2;P2;SDS_P1;SDS_P2;PMS_P1;PMS_P2;Temp;Humidity;BMP_temperature;BMP_pressure;BME280_temperature;BME280_humidity;BME280_pressure;Samples;Min_cycle;Max_cycle;Signal;HPM_P1;HPM_P2
2021/01/28 00:00:22;;;;;;;15.93;12.80;;;8.80;99.90;;;8.96;67.46;100679.53;4842961;28;97396;-54
2021/01/28 00:02:48;;;;;;;17.27;12.83;;;8.80;99.90;;;8.96;66.78;100674.28;4844983;28;97038;-54
2021/01/28 00:05:15;;;;;;;16.30;11.80;;;8.80;99.90;;;8.97;66.49;100670.78;4871753;28;97543;-53
2021/01/28 00:07:41;;;;;;;14.47;11.57;;;8.80;99.90;;;8.92;67.05;100667.41;4853817;28;97216;-57
2021/01/28 00:10:08;;;;;;;16.53;11.03;;;8.80;99.90;;;8.93;67.00;100669.13;4849987;28;96898;-53
2021/01/28 00:12:34;;;;;;;14.10;10.33;;;8.80;99.90;;;8.94;67.20;100666.44;4851075;28;96972;-55
2021/01/28 00:15:00;;;;;;;16.10;10.77;;;8.80;99.90;;;8.94;67.00;100657.69;4833715;28;97535;-53
2021/01/28 00:17:26;;;;;;;14.90;11.67;;;8.80;99.90;;;8.92;67.23;100662.13;4856860;28;98536;-56
2021/01/28 00:19:52;;;;;;;14.83;10.90;;;8.80;99.90;;;8.91;67.41;100649.88;4848016;28;107378;-52
2021/01/28 00:22:18;;;;;;;16.10;11.13;;;8.80;99.90;;;8.90;66.82;100664.81;4858260;28;98188;-54
2021/01/28 00:24:44;;;;;;;13.57;10.83;;;8.80;99.90;;;8.85;67.03;100655.34;4841408;28;97032;-53
2021/01/28 00:27:09;;;;;;;15.33;11.03;;;8.80;99.90;;;8.85;66.97;100653.56;4853804;28;98362;-53
2021/01/28 00:29:35;;;;;;;13.77;10.97;;;8.70;99.90;;;8.84;67.28;100643.09;4846890;28;99284;-56
2021/01/28 00:32:01;;;;;;;14.50;10.87;;;8.70;99.90;;;8.84;67.14;100640.47;4855251;28;97245;-56
2021/01/28 00:34:27;;;;;;;12.90;10.17;;;8.70;99.90;;;8.84;66.96;100636.06;4833962;28;97282;-56
2021/01/28 00:36:52;;;;;;;14.10;10.43;;;8.70;99.90;;;8.84;67.07;100643.09;4855147;28;99187;-54
2021/01/28 00:39:19;;;;;;;14.80;10.90;;;8.70;99.90;;;8.89;67.74;100633.28;4849199;28;118787;-57
2021/01/28 00:41:44;;;;;;;17.27;11.13;;;8.80;99.90;;;8.89;66.79;100638.56;4864927;28;97358;-55
2021/01/28 00:44:10;;;;;;;13.73;10.23;;;8.80;99.90;;;8.88;67.02;100644.72;4852777;28;102373;-56
2021/01/28 00:46:37;;;;;;;16.17;10.53;;;8.80;99.90;;;8.86;67.23;100643.91;4846666;28;97536;-57
2021/01/28 00:49:03;;;;;;;13.57;11.07;;;8.80;99.90;;;8.85;67.39;100634.28;4857462;28;97442;-54
2021/01/28 00:51:29;;;;;;;15.00;10.97;;;8.70;99.90;;;8.88;67.48;100634.19;4850474;28;104373;-57
2021/01/28 00:53:55;;;;;;;13.80;10.50;;;8.80;99.90;;;8.89;66.78;100625.41;4865884;28;100686;-53
2021/01/28 00:56:21;;;;;;;13.47;10.40;;;8.80;99.90;;;8.87;66.84;100616.69;4847227;28;99611;-56
2021/01/28 00:58:50;;;;;;;16.53;9.97;;;8.80;99.90;;;8.86;66.92;100614.97;4838484;28;99246;-51
2021/01/28 01:01:16;;;;;;;14.13;10.10;;;8.80;99.90;;;8.87;67.14;100606.16;4847967;28;98472;-56
2021/01/28 01:03:42;;;;;;;17.13;10.27;;;8.70;99.90;;;8.88;67.56;100592.13;4868638;28;97314;-55
2021/01/28 01:06:08;;;;;;;14.93;9.40;;;8.80;99.90;;;8.89;66.73;100578.06;4862893;28;99865;-56
2021/01/28 01:08:34;;;;;;;13.87;10.33;;;8.80;99.90;;;8.93;66.91;100575.28;4864909;28;97420;-56
2021/01/28 01:11:07;;;;;;;13.73;9.80;;;8.80;99.90;;;8.95;66.57;100583.13;4849971;28;98003;-51
2021/01/28 01:13:36;;;;;;;15.17;10.47;;;8.80;99.90;;;8.95;67.24;100572.59;4864513;28;97111;-57
2021/01/28 01:16:04;;;;;;;16.63;9.77;;;8.80;99.90;;;8.99;67.11;100576.88;4860947;28;99243;-49
2021/01/28 01:18:32;;;;;;;16.40;10.23;;;8.80;99.90;;;8.99;66.62;100561.09;4853596;28;97427;-54
2021/01/28 01:21:00;;;;;;;15.00;10.53;;;8.90;99.90;;;8.98;66.41;100567.25;4849730;28;97118;-53
2021/01/28 01:23:26;;;;;;;16.27;10.83;;;8.90;99.90;;;9.01;66.67;100567.16;4859306;28;97902;-56
2021/01/28 01:25:53;;;;;;;16.67;11.20;;;8.90;99.90;;;8.99;66.39;100566.34;4848131;28;99414;-56
2021/01/28 01:28:19;;;;;;;15.40;10.87;;;8.90;99.90;;;9.01;66.88;100569.78;4847436;28;98342;-55
2021/01/28 01:30:45;;;;;;;17.33;10.50;;;8.90;99.90;;;9.02;66.57;100566.25;4851738;28;97316;-54
2021/01/28 01:33:11;;;;;;;14.40;9.93;;;8.90;99.90;;;9.04;66.49;100564.44;4832205;28;97938;-57
2021/01/28 01:35:38;;;;;;;14.97;9.97;;;8.90;99.90;;;9.06;66.13;100575.75;4848933;28;99426;-58
2021/01/28 01:38:05;;;;;;;15.00;10.40;;;8.90;99.90;;;9.04;66.15;100567.06;4844361;28;98716;-56
2021/01/28 01:40:40;;;;;;;14.77;10.23;;;8.90;99.90;;;9.04;66.56;100572.31;4854364;28;97362;-53
2021/01/28 01:43:10;;;;;;;15.77;10.00;;;8.90;99.90;;;9.01;66.61;100564.53;4844500;28;97481;-55
2021/01/28 01:45:47;;;;;;;18.10;10.83;;;8.90;99.90;;;9.01;66.45;100561.91;4862663;28;99000;-54
2021/01/28 01:48:38;;;;;;;15.37;10.37;;;8.90;99.90;;;9.00;66.17;100554.91;4848261;28;98395;-53
2021/01/28 01:54:48;;;;;;;12.97;9.40;;;8.80;99.90;;;8.93;66.88;100537.59;4846684;28;97212;-54
2021/01/28 01:57:29;;;;;;;13.03;9.10;;;8.80;99.90;;;8.99;66.78;100524.25;4855256;28;97306;-54
2021/01/28 02:07:34;;;;;;;15.70;9.97;;;8.90;99.90;;;9.12;66.22;100501.91;4811733;28;109427;-50
2021/01/28 02:10:00;;;;;;;13.90;9.80;;;8.90;99.90;;;9.09;66.03;100504.63;4803462;28;99135;-50
2021/01/28 02:12:26;;;;;;;15.17;10.70;;;8.90;99.90;;;9.11;65.75;100505.47;4802973;28;98139;-52
2021/01/28 02:14:54;;;;;;;12.70;9.23;;;9.00;99.90;;;9.07;66.23;100508.22;4780346;28;97391;-53
2021/01/28 02:17:24;;;;;;;13.10;9.77;;;8.90;99.90;;;9.06;66.06;100485.44;4791075;28;98869;-52
2021/01/28 02:19:53;;;;;;;12.97;9.67;;;8.90;99.90;;;9.06;66.39;100501.22;4780386;28;97666;-52
2021/01/28 02:22:56;;;;;;;14.47;9.80;;;8.90;99.90;;;9.06;65.90;100496.81;4790922;28;97055;-54
2021/01/28 02:25:33;;;;;;;12.47;9.27;;;8.90;99.90;;;9.02;66.49;100489.94;4787307;29;98491;-53
2021/01/28 02:28:07;;;;;;;14.57;9.30;;;8.90;99.90;;;9.00;66.11;100481.25;4793557;28;98078;-56
2021/01/28 02:30:36;;;;;;;14.67;9.73;;;8.90;99.90;;;8.97;66.43;100481.34;4797910;28;97213;-54
2021/01/28 02:33:05;;;;;;;12.23;8.77;;;8.80;99.90;;;8.96;65.85;100471.72;4801756;28;97429;-52
2021/01/28 02:35:34;;;;;;;17.17;9.97;;;8.80;99.90;;;9.00;66.68;100481.25;4814734;28;97357;-51
2021/01/28 02:38:08;;;;;;;12.60;9.00;;;8.90;99.90;;;8.99;66.03;100474.28;4825188;28;98376;-51
2021/01/28 02:40:37;;;;;;;17.17;9.70;;;8.90;99.90;;;8.99;66.13;100474.28;4821897;28;97527;-50
2021/01/28 02:43:05;;;;;;;13.80;9.20;;;8.80;99.90;;;8.96;66.09;100458.56;4818319;28;97234;-55
2021/01/28 02:45:35;;;;;;;12.97;10.00;;;8.80;99.90;;;9.00;65.79;100454.94;4818989;28;97438;-56
2021/01/28 02:48:07;;;;;;;14.47;9.77;;;8.80;99.90;;;9.01;66.36;100442.66;4823234;28;97699;-58
2021/01/28 02:50:34;;;;;;;12.87;9.80;;;8.80;99.90;;;9.01;66.01;100438.25;4818305;28;97298;-48
2021/01/28 02:53:04;;;;;;;14.17;9.03;;;8.90;99.90;;;9.09;65.72;100419.56;4819241;28;97502;-55
2021/01/28 02:55:34;;;;;;;12.63;9.70;;;8.90;99.90;;;9.09;65.83;100417.78;4813493;28;97364;-53
2021/01/28 02:58:00;;;;;;;13.20;8.73;;;9.00;99.90;;;9.08;65.39;100417.84;4819423;28;97098;-52
2021/01/28 03:00:34;;;;;;;14.43;9.20;;;9.00;99.90;;;9.08;65.28;100408.16;4813727;29;106363;-53
2021/01/28 03:03:10;;;;;;;13.80;9.13;;;8.90;99.90;;;9.04;65.60;100403.94;4837087;28;96881;-54
2021/01/28 03:05:36;;;;;;;14.53;9.70;;;8.90;99.90;;;9.04;66.16;100398.66;4815914;29;97084;-53
2021/01/28 03:08:04;;;;;;;13.50;8.80;;;8.90;99.90;;;9.03;66.09;100401.34;4824187;28;99046;-56
2021/01/28 03:10:30;;;;;;;13.47;9.40;;;8.90;99.90;;;9.04;65.76;100390.78;4824113;28;99828;-53
2021/01/28 03:12:56;;;;;;;12.70;8.87;;;8.90;99.90;;;9.05;65.48;100378.47;4829533;28;97735;-54
2021/01/28 03:15:23;;;;;;;16.47;8.90;;;8.90;99.90;;;9.06;65.71;100367.91;4839892;28;98032;-54
2021/01/28 03:17:53;;;;;;;14.87;9.00;;;8.90;99.90;;;9.10;65.35;100369.50;4821555;28;99896;-55
2021/01/28 03:20:21;;;;;;;14.37;9.17;;;9.00;99.90;;;9.04;65.46;100372.38;4824819;28;97258;-55
2021/01/28 03:22:47;;;;;;;15.53;9.23;;;8.90;99.90;;;9.08;65.31;100381.00;4828368;28;97033;-56
2021/01/28 03:25:15;;;;;;;13.63;9.13;;;8.90;99.90;;;9.13;65.51;100387.84;4828403;28;97012;-53
2021/01/28 03:27:41;;;;;;;12.87;8.43;;;9.00;99.90;;;9.09;65.33;100377.47;4833109;28;97111;-48
2021/01/28 03:30:12;;;;;;;15.17;9.43;;;8.90;99.90;;;9.09;65.16;100370.41;4822804;28;97038;-52
2021/01/28 03:32:38;;;;;;;16.20;8.70;;;8.90;99.90;;;9.05;65.36;100365.31;4824105;28;97285;-53
2021/01/28 03:35:07;;;;;;;13.03;8.77;;;8.90;99.90;;;9.08;65.50;100363.44;4822126;28;96997;-56
2021/01/28 03:37:33;;;;;;;12.60;8.47;;;8.90;99.90;;;9.03;65.99;100362.75;4823364;28;98840;-53
2021/01/28 03:39:59;;;;;;;12.43;8.27;;;8.90;99.90;;;9.13;64.50;100356.28;4837052;28;97469;-54
2021/01/28 03:42:26;;;;;;;12.90;8.30;;;8.90;99.90;;;9.25;64.29;100350.56;4839101;28;97380;-50
2021/01/28 03:44:52;;;;;;;10.00;7.90;;;9.00;99.90;;;9.38;63.22;100355.41;4840127;28;96877;-53
2021/01/28 03:47:18;;;;;;;12.43;8.87;;;9.00;99.90;;;9.23;64.80;100347.13;4860725;28;97139;-50
2021/01/28 03:49:44;;;;;;;12.67;8.53;;;9.00;99.90;;;9.27;64.88;100352.31;4821282;28;99206;-55
2021/01/28 03:52:10;;;;;;;10.70;7.97;;;9.00;99.90;;;9.17;64.69;100344.72;4823131;28;97320;-49
2021/01/28 03:54:36;;;;;;;13.53;8.27;;;9.00;99.90;;;9.15;64.65;100348.31;4826410;28;97496;-54
2021/01/28 03:57:04;;;;;;;10.40;8.27;;;8.90;99.90;;;9.13;65.05;100337.84;4841021;28;97458;-51
2021/01/28 03:59:30;;;;;;;10.83;8.53;;;8.90;99.90;;;9.14;64.56;100331.69;4835917;28;97295;-56
2021/01/28 04:01:56;;;;;;;10.37;7.70;;;8.90;99.90;;;9.13;65.13;100329.97;4839070;28;107382;-55
2021/01/28 04:04:21;;;;;;;11.47;8.60;;;8.90;99.90;;;9.08;65.51;100323.97;4833757;28;97644;-54
2021/01/28 04:06:47;;;;;;;10.10;8.23;;;8.90;99.90;;;9.15;63.82;100309.72;4822625;29;97488;-49
2021/01/28 04:09:14;;;;;;;13.10;8.50;;;8.90;99.90;;;9.14;64.70;100312.41;4818540;28;97187;-54
2021/01/28 04:11:39;;;;;;;12.17;8.13;;;8.90;99.90;;;9.11;65.41;100315.09;4835566;28;97023;-52
2021/01/28 04:14:05;;;;;;;10.20;8.33;;;8.90;99.90;;;9.06;65.12;100323.19;4839707;28;100052;-54
2021/01/28 04:16:31;;;;;;;12.67;8.07;;;8.90;99.90;;;9.22;64.33;100318.22;4837432;28;100940;-50
2021/01/28 04:18:57;;;;;;;11.77;7.93;;;9.00;99.90;;;9.16;64.48;100319.31;4816941;28;99940;-54
2021/01/28 04:21:23;;;;;;;9.63;8.00;;;9.00;99.90;;;9.10;65.45;100314.25;4844132;28;97303;-52
2021/01/28 04:23:48;;;;;;;10.67;7.63;;;8.90;99.90;;;9.05;65.58;100310.94;4821756;28;97551;-55
2021/01/28 04:26:14;;;;;;;9.77;7.00;;;8.90;99.90;;;9.27;64.47;100304.94;4819350;28;115260;-54
2021/01/28 04:28:40;;;;;;;10.30;8.40;;;9.00;99.90;;;9.17;65.05;100305.25;4826105;28;98400;-52
2021/01/28 04:31:06;;;;;;;8.23;7.03;;;9.00;99.90;;;9.12;65.17;100299.28;4817913;28;98813;-53
2021/01/28 04:33:33;;;;;;;11.97;7.70;;;8.90;99.90;;;9.20;64.38;100289.34;4841231;28;97025;-51
2021/01/28 04:35:59;;;;;;;8.03;6.60;;;9.00;99.90;;;9.21;65.04;100285.78;4817418;28;98290;-50
2021/01/28 04:38:25;;;;;;;6.97;6.27;;;9.00;99.90;;;9.28;65.00;100275.06;4835570;28;98267;-53
2021/01/28 04:41:19;;;;;;;8.50;7.47;;;9.00;99.90;;;9.35;63.87;100266.88;4840068;28;97174;-51
2021/01/28 04:43:49;;;;;;;8.43;6.83;;;9.00;99.90;;;9.31;64.60;100261.78;4843337;28;96857;-55
2021/01/28 04:46:38;;;;;;;7.40;6.37;;;9.10;99.90;;;9.38;63.69;100258.84;4817248;28;96892;-48
2021/01/28 04:49:08;;;;;;;7.23;6.50;;;9.10;99.90;;;9.42;63.91;100243.81;4833098;28;99643;-50
2021/01/28 04:51:35;;;;;;;7.93;6.57;;;9.10;99.90;;;9.48;64.03;100243.59;4832484;28;108584;-52
2021/01/28 04:54:33;;;;;;;8.07;6.70;;;9.20;99.90;;;9.52;63.41;100221.47;4831912;28;97244;-51
2021/01/28 04:57:08;;;;;;;5.87;4.97;;;9.20;99.90;;;9.51;63.61;100225.03;4821831;28;97236;-52
2021/01/28 04:59:42;;;;;;;7.17;6.43;;;9.20;99.90;;;9.38;63.91;100215.88;4842382;28;97271;-52
2021/01/28 05:02:16;;;;;;;7.53;5.93;;;9.10;99.90;;;9.48;63.39;100209.34;4817950;28;99872;-50
2021/01/28 05:04:52;;;;;;;7.53;6.13;;;9.20;99.90;;;9.49;63.36;100216.34;4846485;28;101451;-51
2021/01/28 05:07:28;;;;;;;7.33;6.03;;;9.20;99.90;;;9.47;63.64;100202.38;4838703;28;98608;-51
2021/01/28 05:10:14;;;;;;;8.73;6.57;;;9.20;99.90;;;9.51;64.12;100193.44;4857948;28;100207;-52
2021/01/28 05:12:40;;;;;;;7.03;6.33;;;9.20;99.90;;;9.40;63.89;100190.34;4796496;28;97377;-53
2021/01/28 05:15:24;;;;;;;7.47;6.37;;;9.10;99.90;;;9.54;63.78;100181.00;4841899;28;97257;-52
2021/01/28 05:18:36;;;;;;;7.33;6.20;;;9.20;99.90;;;9.50;64.11;100175.94;4828764;28;97770;-51
2021/01/28 05:21:37;;;;;;;6.33;4.20;;;9.20;99.90;;;9.62;63.16;100164.94;4778625;29;102820;-50
2021/01/28 05:24:22;;;;;;;8.17;6.03;;;9.30;99.90;;;9.51;63.78;100161.84;4815473;28;97283;-51
2021/01/28 05:26:48;;;;;;;8.80;5.97;;;9.20;99.90;;;9.51;63.25;100157.44;4831415;28;97102;-51
2021/01/28 05:29:28;;;;;;;7.47;6.50;;;9.20;99.90;;;9.59;63.61;100140.50;4828369;28;96922;-50
2021/01/28 05:31:59;;;;;;;6.53;5.70;;;9.30;99.90;;;9.44;63.50;100128.78;4832803;28;99032;-50
2021/01/28 05:34:31;;;;;;;7.67;5.80;;;9.20;99.90;;;9.40;63.73;100127.19;4832409;28;97247;-49
2021/01/28 05:37:02;;;;;;;6.63;5.93;;;9.10;99.90;;;9.36;64.36;100129.06;4798342;28;102810;-56
2021/01/28 05:39:39;;;;;;;8.17;5.70;;;9.10;99.90;;;9.36;63.83;100128.22;4826302;28;104009;-52
2021/01/28 05:42:26;;;;;;;7.50;5.70;;;9.10;99.90;;;9.42;63.89;100114.84;4817409;28;98231;-53
2021/01/28 05:44:52;;;;;;;6.67;5.00;;;9.10;99.90;;;9.64;62.17;100109.56;4818999;29;96984;-51
2021/01/28 05:47:18;;;;;;;5.97;4.60;;;9.20;99.90;;;9.56;63.19;100107.25;4814015;28;99741;-52
2021/01/28 05:49:46;;;;;;;3.67;3.30;;;9.20;99.90;;;9.95;60.99;100082.81;4818221;28;99384;-51
2021/01/28 05:52:31;;;;;;;6.90;5.27;;;9.50;99.90;;;10.17;59.80;100073.09;4830189;28;99223;-48
2021/01/28 05:55:12;;;;;;;7.37;5.00;;;9.70;99.90;;;10.10;61.20;100079.53;4832739;28;97290;-58
2021/01/28 05:57:52;;;;;;;4.07;3.57;;;9.70;99.90;;;10.34;60.29;100064.47;4819155;28;97154;-51
2021/01/28 06:01:00;;;;;;;5.33;4.60;;;9.90;99.90;;;10.36;60.14;100063.47;4810381;28;98011;-52
2021/01/28 06:04:18;;;;;;;6.50;4.80;;;10.00;99.90;;;10.57;58.50;100056.41;4743663;29;103579;-48
2021/01/28 06:07:22;;;;;;;3.60;3.17;;;10.10;99.90;;;10.53;59.29;100048.69;4834995;28;97500;-48
2021/01/28 06:10:02;;;;;;;5.83;5.03;;;10.00;99.90;;;10.43;60.35;100042.97;4803359;28;96920;-52
2021/01/28 06:12:58;;;;;;;4.73;3.83;;;10.00;99.90;;;10.63;59.65;100034.16;4818626;28;101952;-48
2021/01/28 06:15:37;;;;;;;6.87;5.87;;;10.10;99.90;;;10.66;59.09;100034.88;4838614;28;101472;-52
2021/01/28 06:18:45;;;;;;;10.77;6.30;;;10.20;99.90;;;10.83;58.88;100020.91;4801371;28;97065;-50
2021/01/28 06:21:46;;;;;;;1.83;1.50;;;10.40;99.90;;;11.25;56.10;100022.44;4837969;28;97398;-53
2021/01/28 06:24:45;;;;;;;2.50;2.30;;;10.70;99.90;;;11.34;55.76;100011.44;4818978;28;99416;-49
2021/01/28 06:27:43;;;;;;;1.63;1.47;;;10.90;99.90;;;11.85;53.70;100001.84;4817913;28;97518;-52
2021/01/28 06:30:45;;;;;;;1.93;1.43;;;11.50;99.90;;;12.35;52.64;100001.88;4817582;28;102940;-52
2021/01/28 06:33:30;;;;;;;2.03;1.80;;;12.00;99.90;;;12.61;51.89;99992.53;4842340;28;97043;-55
2021/01/28 06:36:08;;;;;;;1.40;1.30;;;12.40;99.90;;;12.99;50.64;99993.06;4827234;28;97314;-55
2021/01/28 06:39:19;;;;;;;2.30;1.93;;;12.80;99.90;;;13.02;50.33;99986.75;4824301;28;104513;-55
2021/01/28 06:42:23;;;;;;;4.70;4.20;;;13.00;99.90;;;12.95;50.37;99965.06;4831537;28;97499;-57
2021/01/28 06:45:26;;;;;;;1.83;1.60;;;12.70;99.90;;;13.10;49.79;99971.28;4826698;28;97655;-52
2021/01/28 06:47:51;;;;;;;1.23;1.10;;;12.90;99.70;;;13.13;49.78;99978.19;4797636;28;102700;-54
2021/01/28 06:50:51;;;;;;;2.77;2.57;;;12.90;99.90;;;12.97;50.57;99959.66;4824477;28;97183;-51
2021/01/28 06:53:22;;;;;;;1.83;1.37;;;12.70;99.90;;;13.23;49.65;99953.78;4817486;28;97082;-53
2021/01/28 06:56:37;;;;;;;2.60;1.80;;;12.90;99.80;;;13.45;48.94;99939.28;4829985;28;97477;-57
2021/01/28 06:59:36;;;;;;;2.97;2.67;;;13.20;99.10;;;13.67;48.62;99932.63;4819736;28;104215;-53
2021/01/28 07:02:16;;;;;;;1.00;0.90;;;13.50;98.00;;;13.65;47.72;99928.38;4842856;28;97305;-54
2021/01/28 07:04:55;;;;;;;3.37;2.70;;;13.60;97.80;;;13.62;48.15;99923.25;4824746;29;97422;-56
2021/01/28 07:07:25;;;;;;;3.10;1.93;;;13.60;97.50;;;13.71;48.26;99922.69;4830043;28;97503;-55
2021/01/28 07:10:04;;;;;;;1.83;1.53;;;13.50;98.30;;;13.93;47.49;99907.22;4811073;29;97392;-50
2021/01/28 07:12:44;;;;;;;3.23;2.47;;;13.80;97.50;;;13.93;46.86;99898.41;4813993;28;103058;-52
2021/01/28 07:15:13;;;;;;;1.50;1.20;;;14.00;96.60;;;14.15;46.98;99895.25;4820403;28;103526;-55
2021/01/28 07:17:51;;;;;;;1.13;0.97;;;14.20;96.70;;;14.31;46.59;99885.38;4814126;28;96957;-52
2021/01/28 07:20:39;;;;;;;3.80;3.37;;;14.40;96.30;;;14.14;46.79;99877.66;4830382;28;100540;-52
2021/01/28 07:23:29;;;;;;;1.30;1.20;;;14.20;96.00;;;14.02;47.42;99878.41;4806242;28;97178;-50
2021/01/28 07:26:10;;;;;;;1.77;1.63;;;13.90;97.00;;;14.13;46.86;99862.69;4805818;28;97584;-55
2021/01/28 07:28:37;;;;;;;1.60;1.07;;;14.00;96.40;;;14.27;46.58;99874.13;4813886;28;97010;-51
2021/01/28 07:31:08;;;;;;;3.50;3.20;;;14.30;96.10;;;13.98;47.36;99857.38;4815375;28;99568;-58
2021/01/28 07:33:41;;;;;;;2.70;2.23;;;13.90;96.60;;;13.92;47.14;99855.13;4812611;28;101129;-49
2021/01/28 07:36:22;;;;;;;1.70;1.57;;;13.90;96.60;;;13.96;47.43;99837.22;4810254;28;97003;-55
2021/01/28 07:38:55;;;;;;;2.77;1.63;;;13.80;96.70;;;13.76;47.79;99838.47;4811075;28;97617;-49
2021/01/28 07:41:51;;;;;;;1.20;1.10;;;13.50;97.40;;;13.97;46.29;99818.56;4813384;28;97731;-53
2021/01/28 07:44:39;;;;;;;1.50;1.10;;;13.80;96.30;;;14.21;46.60;99820.63;4825039;28;99847;-49
2021/01/28 07:47:35;;;;;;;1.00;0.90;;;14.20;96.00;;;14.38;46.29;99815.09;4812934;28;97112;-52
2021/01/28 07:50:30;;;;;;;2.33;1.97;;;14.40;95.90;;;14.32;46.41;99807.53;4831393;28;97548;-51
2021/01/28 07:52:58;;;;;;;2.90;2.23;;;14.30;96.00;;;14.35;46.07;99791.41;4820614;28;102863;-49
2021/01/28 07:55:43;;;;;;;1.73;1.63;;;14.40;95.10;;;14.32;46.28;99810.19;4818405;28;99704;-53
2021/01/28 07:58:31;;;;;;;1.50;1.40;;;14.40;95.60;;;14.23;46.26;99798.34;4838989;28;98014;-51
2021/01/28 08:01:13;;;;;;;1.50;1.40;;;14.20;95.20;;;14.28;46.53;99790.94;4851938;28;98163;-51
2021/01/28 08:04:13;;;;;;;1.80;1.23;;;14.20;95.80;;;14.43;45.95;99790.91;4822891;28;127147;-54
2021/01/28 08:06:39;;;;;;;1.10;1.00;;;14.60;94.90;;;14.43;46.13;99783.78;4801864;28;101334;-54
2021/01/28 08:09:16;;;;;;;1.00;0.90;;;14.40;95.50;;;14.44;46.31;99777.56;4827292;28;99874;-58
2021/01/28 08:11:55;;;;;;;1.00;0.90;;;14.40;95.40;;;14.53;46.01;99762.84;4832131;28;101002;-50
2021/01/28 08:14:29;;;;;;;3.57;2.80;;;14.60;95.00;;;14.28;46.57;99763.56;4807599;28;98458;-53
2021/01/28 08:16:56;;;;;;;1.57;1.27;;;14.50;95.20;;;14.20;46.88;99763.22;4805623;29;99168;-54
2021/01/28 08:19:28;;;;;;;0.97;0.90;;;14.10;96.60;;;14.09;46.69;99766.56;4818611;28;97106;-55
2021/01/28 08:22:23;;;;;;;1.47;0.83;;;13.90;96.20;;;14.06;47.09;99747.34;4838951;28;96884;-55
2021/01/28 08:24:57;;;;;;;1.27;0.97;;;14.00;96.10;;;13.89;47.52;99745.78;4811082;28;101756;-51
2021/01/28 08:27:34;;;;;;;3.53;1.97;;;13.70;96.90;;;13.85;47.38;99745.09;4823156;28;97489;-53
2021/01/28 08:30:01;;;;;;;0.80;0.80;;;13.70;96.50;;;14.02;47.38;99737.88;4836494;28;98513;-52
2021/01/28 08:32:30;;;;;;;2.50;2.30;;;13.80;96.50;;;14.02;47.03;99719.31;4826255;28;97499;-54
2021/01/28 08:35:23;;;;;;;1.23;1.10;;;13.90;96.10;;;14.05;47.01;99719.16;4812752;28;96856;-52
2021/01/28 08:37:49;;;;;;;1.23;1.10;;;13.90;96.10;;;13.82;48.00;99717.97;4854689;28;101194;-54
2021/01/28 08:40:22;;;;;;;3.03;2.70;;;13.60;97.80;;;13.65;48.35;99711.06;4834323;28;97204;-54
2021/01/28 08:42:49;;;;;;;3.30;2.97;;;13.30;98.10;;;13.25;50.54;99712.69;4843975;28;97103;-55
2021/01/28 08:45:29;;;;;;;1.70;1.47;;;12.90;99.40;;;13.29;49.56;99708.91;4816364;28;98010;-52
2021/01/28 08:48:00;;;;;;;1.40;1.30;;;12.70;99.90;;;13.02;50.78;99706.16;4852118;28;99343;-55
2021/01/28 08:50:27;;;;;;;3.00;2.80;;;12.50;99.90;;;12.74;51.92;99701.66;4823800;28;101199;-52
2021/01/28 08:53:07;;;;;;;0.97;0.93;;;12.30;99.90;;;12.92;50.95;99697.06;4830850;28;97362;-49
2021/01/28 08:55:37;;;;;;;3.00;2.70;;;12.40;99.90;;;12.57;53.09;99699.13;4836451;28;100675;-50
2021/01/28 08:58:30;;;;;;;3.20;2.83;;;12.10;99.90;;;12.33;53.39;99701.44;4829054;28;98157;-51
2021/01/28 09:01:00;;;;;;;1.70;1.53;;;11.80;99.90;;;12.21;53.12;99701.19;4831289;28;97335;-52
2021/01/28 09:03:31;;;;;;;1.80;1.70;;;11.60;99.90;;;12.18;52.80;99688.16;4827231;28;96988;-54
2021/01/28 09:06:02;;;;;;;2.77;1.63;;;11.50;99.90;;;12.41;51.73;99683.31;4822313;28;100029;-51
2021/01/28 09:08:39;;;;;;;1.00;0.90;;;11.80;99.90;;;12.61;51.45;99680.38;4835205;28;97229;-51
2021/01/28 09:11:24;;;;;;;0.63;0.63;;;12.10;99.90;;;12.85;50.11;99661.28;4836655;28;98848;-52
2021/01/28 09:14:14;;;;;;;1.10;0.90;;;12.50;99.90;;;12.92;49.89;99660.84;4814406;28;97455;-49
2021/01/28 09:16:50;;;;;;;2.40;1.80;;;12.70;99.50;;;12.96;50.89;99661.50;4824854;28;101165;-50
2021/01/28 09:19:19;;;;;;;2.47;1.70;;;12.70;99.70;;;13.19;49.51;99660.13;4830888;28;101879;-48
2021/01/28 09:21:48;;;;;;;1.63;1.50;;;12.90;98.90;;;13.27;48.93;99648.09;4826367;28;97356;-51
2021/01/28 09:24:32;;;;;;;1.97;1.43;;;13.00;98.80;;;13.11;50.30;99642.03;4836957;28;97303;-51
2021/01/28 09:27:21;;;;;;;1.70;1.30;;;12.90;99.40;;;13.37;48.98;99636.00;4812650;29;99056;-51
2021/01/28 09:29:50;;;;;;;1.37;0.80;;;13.00;98.70;;;13.39;48.98;99647.34;4846891;28;102657;-49
2021/01/28 09:32:18;;;;;;;1.90;1.40;;;13.10;98.80;;;13.30;49.43;99637.31;4819751;28;96915;-51
2021/01/28 09:34:46;;;;;;;0.73;0.73;;;13.00;98.90;;;13.56;48.68;99627.72;4824039;29;96842;-49
2021/01/28 09:37:20;;;;;;;1.00;0.90;;;13.30;97.80;;;13.72;48.25;99627.56;4793221;28;98605;-57
2021/01/28 09:39:51;;;;;;;3.20;1.73;;;13.60;97.30;;;13.11;50.07;99632.28;4830437;28;99338;-51
2021/01/28 09:42:31;;;;;;;1.03;0.77;;;12.90;99.70;;;13.40;48.90;99611.94;4810155;28;97441;-53
2021/01/28 09:45:07;;;;;;;1.27;0.97;;;13.00;99.00;;;13.52;48.85;99614.78;4838223;28;97009;-50
2021/01/28 09:47:34;;;;;;;1.90;1.70;;;13.20;98.60;;;13.15;51.00;99617.06;4808838;28;103531;-51
2021/01/28 09:50:12;;;;;;;1.40;1.23;;;13.00;99.10;;;13.35;49.34;99603.47;4826704;28;97726;-54
2021/01/28 09:52:49;;;;;;;0.53;0.50;;;13.10;98.50;;;13.52;48.91;99609.47;4814891;28;97296;-51
2021/01/28 09:55:21;;;;;;;2.70;1.87;;;13.20;98.70;;;13.62;48.55;99600.00;4833177;28;98503;-52
2021/01/28 09:57:48;;;;;;;0.80;0.80;;;13.40;97.60;;;13.65;48.23;99602.44;4829520;28;105564;-53
2021/01/28 10:00:21;;;;;;;3.33;1.37;;;13.50;98.00;;;13.78;47.80;99595.41;4835953;28;98040;-59
2021/01/28 10:02:58;;;;;;;1.93;1.67;;;13.60;97.10;;;13.72;48.40;99601.06;4834943;28;97131;-54
2021/01/28 10:05:30;;;;;;;1.60;1.20;;;13.50;98.00;;;13.83;47.48;99587.13;4823494;28;97367;-52
2021/01/28 10:07:57;;;;;;;0.93;0.90;;;13.70;97.10;;;13.91;47.62;99593.63;4818004;29;101082;-54
2021/01/28 10:10:30;;;;;;;4.53;3.37;;;13.80;97.10;;;13.92;47.62;99597.13;4820093;28;97353;-52
2021/01/28 10:13:00;;;;;;;3.30;2.20;;;13.80;97.50;;;13.96;47.75;99582.72;4825528;28;97292;-52
2021/01/28 10:15:26;;;;;;;1.33;1.23;;;13.80;97.40;;;14.14;47.03;99580.63;4814640;28;97247;-54
2021/01/28 10:17:55;;;;;;;0.67;0.60;;;14.00;95.90;;;14.19;46.85;99574.09;4826403;28;97709;-53
2021/01/28 10:20:21;;;;;;;2.13;1.73;;;14.10;96.10;;;14.06;47.61;99572.38;4809897;28;97449;-51
2021/01/28 10:22:48;;;;;;;1.10;0.70;;;14.00;96.60;;;14.22;46.97;99570.38;4840380;28;97013;-49
2021/01/28 10:25:17;;;;;;;1.90;1.10;;;14.10;96.20;;;14.11;47.03;99570.25;4828058;28;99972;-57
2021/01/28 10:27:43;;;;;;;1.60;1.40;;;14.10;96.20;;;14.17;46.99;99565.34;4820360;28;101167;-51
2021/01/28 10:30:13;;;;;;;1.50;0.87;;;14.00;96.40;;;14.13;46.97;99560.38;4809874;29;98350;-51
2021/01/28 10:32:43;;;;;;;0.90;0.77;;;14.00;96.80;;;13.92;48.69;99560.03;4836636;28;96950;-55
2021/01/28 10:35:11;;;;;;;2.23;1.70;;;13.70;98.10;;;13.78;49.74;99547.69;4830022;28;98205;-51
2021/01/28 10:37:37;;;;;;;0.63;0.63;;;13.50;98.90;;;13.80;47.89;99545.78;4820572;28;99816;-50
2021/01/28 10:40:05;;;;;;;1.10;0.90;;;13.40;98.70;;;13.81;47.81;99547.47;4831560;28;97280;-52
2021/01/28 10:42:42;;;;;;;0.80;0.80;;;13.40;98.50;;;13.60;50.22;99543.63;4828178;28;97386;-53
2021/01/28 10:45:19;;;;;;;1.30;1.07;;;13.20;99.70;;;13.76;47.91;99544.28;4827555;28;98290;-54
2021/01/28 10:47:46;;;;;;;1.10;0.77;;;13.30;98.20;;;13.67;48.49;99542.25;4833678;28;103168;-55
2021/01/28 10:50:14;;;;;;;1.90;0.90;;;13.30;98.40;;;13.80;47.82;99537.84;4848475;28;102656;-50
2021/01/28 10:52:40;;;;;;;2.17;1.80;;;13.50;97.80;;;13.88;47.60;99532.84;4810466;28;97791;-52
2021/01/28 10:55:08;;;;;;;2.40;0.90;;;13.70;97.30;;;14.06;47.20;99535.25;4820102;28;97184;-53
2021/01/28 10:57:34;;;;;;;2.40;1.13;;;13.90;96.70;;;14.14;47.03;99535.56;4833350;28;98667;-51